createdAt,value
2018-05-17T00:01:23.390Z,23.48
2018-05-17T00:03:29.222Z,23.42
2018-05-17T00:05:34.417Z,23.52
2018-05-17T00:07:40.561Z,23.41
2018-05-17T00:09:45.737Z,23.50
2018-05-17T00:11:51.373Z,23.27
2018-05-17T00:13:56.965Z,23.40
2018-05-17T00:16:02.903Z,23.13
2018-05-17T00:18:10.432Z,23.21
2018-05-17T00:20:18.067Z,23.35
2018-05-17T00:22:24.638Z,23.67
2018-05-17T00:24:29.829Z,23.64
2018-05-17T00:26:36.220Z,23.68
2018-05-17T00:28:41.427Z,23.65
2018-05-17T00:30:46.575Z,23.25
2018-05-17T00:32:53.032Z,23.17
2018-05-17T00:34:58.865Z,23.33
2018-05-17T00:37:04.192Z,23.31
2018-05-17T00:39:12.665Z,23.13
2018-05-17T00:41:19.168Z,23.30
2018-05-17T00:43:24.866Z,23.24
2018-05-17T00:45:30.641Z,23.29
2018-05-17T00:47:35.872Z,23.05
2018-05-17T00:49:41.041Z,23.24
2018-05-17T00:51:47.333Z,23.29
2018-05-17T00:53:52.593Z,23.44
2018-05-17T00:55:57.815Z,23.41
2018-05-17T00:58:03.720Z,23.11
2018-05-17T01:00:12.298Z,23.21
2018-05-17T01:02:19.904Z,23.35
2018-05-17T01:04:26.593Z,23.37
2018-05-17T01:06:31.961Z,23.15
2018-05-17T01:08:37.302Z,23.10
2018-05-17T01:10:42.920Z,23.08
2018-05-17T01:12:48.839Z,23.31
2018-05-17T01:14:54.622Z,23.32
2018-05-17T01:17:00.892Z,23.08
2018-05-17T01:19:07.988Z,23.03
2018-05-17T01:21:17.048Z,23.17
2018-05-17T01:23:24.534Z,23.06
2018-05-17T01:25:30.989Z,22.86
2018-05-17T01:27:36.275Z,22.81
2018-05-17T01:29:42.360Z,22.94
2018-05-17T01:31:47.531Z,22.82
2018-05-17T01:33:52.756Z,22.95
2018-05-17T01:35:58.204Z,22.89
2018-05-17T01:38:15.047Z,22.90
2018-05-17T01:40:23.127Z,23.18
2018-05-17T01:42:29.405Z,23.13
2018-05-17T01:44:34.694Z,23.10
2018-05-17T01:46:40.666Z,23.04
2018-05-17T01:48:46.215Z,22.98
2018-05-17T01:50:51.782Z,22.93
2018-05-17T01:52:57.179Z,22.81
2018-05-17T01:55:02.643Z,22.78
2018-05-17T01:57:09.029Z,22.88
2018-05-17T01:59:16.655Z,22.87
2018-05-17T02:01:22.797Z,22.72
2018-05-17T02:03:28.107Z,22.96
2018-05-17T02:05:33.480Z,22.98
2018-05-17T02:07:38.833Z,23.01
2018-05-17T02:09:44.801Z,22.92
2018-05-17T02:11:50.005Z,22.98
2018-05-17T02:13:55.623Z,22.73
2018-05-17T02:16:00.758Z,23.01
2018-05-17T02:18:06.719Z,22.63
2018-05-17T02:20:15.507Z,22.73
2018-05-17T02:22:22.532Z,22.93
2018-05-17T02:24:28.390Z,22.81
2018-05-17T02:26:33.793Z,22.64
2018-05-17T02:28:39.294Z,22.78
2018-05-17T02:30:44.684Z,22.89
2018-05-17T02:32:50.243Z,22.67
2018-05-17T02:34:56.063Z,22.68
2018-05-17T02:37:02.026Z,22.57
2018-05-17T02:39:09.703Z,22.70
2018-05-17T02:41:18.063Z,22.60
2018-05-17T02:43:24.473Z,22.75
2018-05-17T02:45:31.485Z,22.72
2018-05-17T02:47:38.879Z,22.64
2018-05-17T02:49:44.366Z,22.79
2018-05-17T02:51:49.776Z,22.66
2018-05-17T02:53:55.381Z,22.62
2018-05-17T02:56:01.174Z,22.67
2018-05-17T02:58:08.350Z,22.68
2018-05-17T03:00:16.388Z,22.69
2018-05-17T03:02:23.500Z,22.65
2018-05-17T03:04:28.987Z,22.73
2018-05-17T03:06:34.509Z,22.79
2018-05-17T03:08:40.478Z,22.84
2018-05-17T03:10:46.234Z,22.66
2018-05-17T03:12:52.156Z,22.86
2018-05-17T03:14:57.910Z,22.48
2018-05-17T03:17:03.902Z,22.36
2018-05-17T03:19:11.377Z,22.42
2018-05-17T03:21:18.046Z,22.64
2018-05-17T03:23:25.844Z,22.34
2018-05-17T03:25:31.316Z,22.48
2018-05-17T03:27:36.527Z,22.53
2018-05-17T03:29:43.037Z,22.65
2018-05-17T03:31:48.760Z,22.65
2018-05-17T03:33:55.935Z,22.44
2018-05-17T03:36:01.578Z,22.57
2018-05-17T03:38:08.624Z,22.32
2018-05-17T03:40:17.306Z,22.41
2018-05-17T03:42:25.278Z,22.55
2018-05-17T03:44:30.534Z,22.47
2018-05-17T03:46:36.141Z,22.25
2018-05-17T03:48:42.348Z,22.64
2018-05-17T03:50:48.157Z,22.29
2018-05-17T03:52:53.900Z,22.24
2018-05-17T03:54:59.048Z,22.48
2018-05-17T03:57:04.613Z,22.28
2018-05-17T03:59:15.384Z,22.44
2018-05-17T04:01:31.510Z,22.50
2018-05-17T04:05:48.200Z,22.46
2018-05-17T04:07:53.441Z,22.06
2018-05-17T04:09:59.210Z,22.22
2018-05-17T04:12:05.256Z,21.63
2018-05-17T04:14:14.965Z,22.03
2018-05-17T04:16:22.808Z,22.20
2018-05-17T04:18:29.014Z,22.60
2018-05-17T04:20:35.136Z,22.39
2018-05-17T04:22:41.196Z,22.20
2018-05-17T04:24:46.723Z,22.55
2018-05-17T04:26:52.162Z,22.22
2018-05-17T04:28:58.090Z,22.55
2018-05-17T04:31:03.487Z,22.47
2018-05-17T04:33:12.256Z,22.60
2018-05-17T04:35:19.626Z,22.15
2018-05-17T04:37:25.941Z,22.64
2018-05-17T04:39:32.253Z,22.44
2018-05-17T04:41:37.798Z,22.04
2018-05-17T04:43:43.485Z,22.37
2018-05-17T04:45:49.641Z,22.37
2018-05-17T04:47:54.936Z,22.57
2018-05-17T04:50:00.151Z,22.38
2018-05-17T04:52:06.287Z,22.66
2018-05-17T04:54:15.513Z,22.33
2018-05-17T04:56:23.158Z,22.44
2018-05-17T04:58:28.699Z,22.35
2018-05-17T05:00:34.024Z,22.38
2018-05-17T05:02:40.084Z,22.41
2018-05-17T05:04:45.648Z,22.37
2018-05-17T05:06:50.806Z,22.32
2018-05-17T05:08:56.569Z,22.55
2018-05-17T05:11:02.179Z,22.45
2018-05-17T05:13:07.972Z,22.71
2018-05-17T05:15:16.077Z,22.61
2018-05-17T05:17:23.079Z,22.50
2018-05-17T05:19:28.729Z,22.71
2018-05-17T05:21:34.838Z,22.48
2018-05-17T05:23:40.536Z,22.40
2018-05-17T05:25:45.719Z,22.42
2018-05-17T05:27:51.542Z,22.45
2018-05-17T05:29:57.721Z,22.17
2018-05-17T05:32:04.305Z,22.46
2018-05-17T05:34:10.831Z,22.58
2018-05-17T05:36:19.088Z,22.24
2018-05-17T05:38:25.213Z,22.23
2018-05-17T05:40:30.798Z,22.48
2018-05-17T05:42:36.415Z,22.17
2018-05-17T05:44:41.644Z,22.23
2018-05-17T05:46:47.063Z,22.24
2018-05-17T05:48:52.815Z,22.10
2018-05-17T05:50:57.950Z,22.09
2018-05-17T05:53:03.716Z,22.16
2018-05-17T05:55:11.780Z,22.02
2018-05-17T05:57:19.520Z,22.33
2018-05-17T05:59:25.294Z,22.09
2018-05-17T06:01:30.825Z,22.38
2018-05-17T06:03:36.745Z,22.34
2018-05-17T06:05:42.030Z,22.24
2018-05-17T06:07:48.061Z,22.26
2018-05-17T06:09:53.337Z,22.06
2018-05-17T06:11:58.974Z,22.41
2018-05-17T06:14:04.816Z,22.36
2018-05-17T06:16:13.548Z,22.04
2018-05-17T06:18:20.275Z,22.24
2018-05-17T06:20:27.766Z,22.32
2018-05-17T06:22:32.934Z,22.44
2018-05-17T06:24:38.008Z,22.51
2018-05-17T06:26:43.633Z,22.63
2018-05-17T06:28:49.106Z,22.64
2018-05-17T06:30:54.314Z,22.04
2018-05-17T06:33:01.280Z,22.15
2018-05-17T06:35:07.167Z,22.48
2018-05-17T06:37:15.722Z,22.52
2018-05-17T06:39:24.701Z,22.50
2018-05-17T06:41:30.041Z,22.65
2018-05-17T06:43:35.294Z,22.72
2018-05-17T06:45:40.938Z,22.62
2018-05-17T06:47:46.089Z,22.67
2018-05-17T06:49:51.367Z,22.09
2018-05-17T06:51:56.803Z,22.34
2018-05-17T06:54:02.137Z,22.22
2018-05-17T06:56:09.290Z,22.39
2018-05-17T06:58:17.196Z,22.60
2018-05-17T07:00:23.248Z,22.58
2018-05-17T07:02:29.346Z,22.29
2018-05-17T07:04:35.350Z,22.47
2018-05-17T07:06:40.505Z,22.54
2018-05-17T07:08:46.352Z,22.45
2018-05-17T07:10:52.587Z,22.58
2018-05-17T07:13:00.147Z,22.59
2018-05-17T07:15:06.498Z,22.62
2018-05-17T07:17:15.345Z,22.92
2018-05-17T07:19:22.377Z,22.50
2018-05-17T07:21:33.220Z,22.60
2018-05-17T07:23:38.683Z,22.31
2018-05-17T07:25:49.550Z,22.58
2018-05-17T07:27:55.201Z,22.80
2018-05-17T07:30:00.719Z,22.90
2018-05-17T07:32:06.724Z,23.17
2018-05-17T07:34:14.905Z,22.92
2018-05-17T07:36:22.161Z,22.84
2018-05-17T07:38:27.684Z,23.07
2018-05-17T07:40:32.987Z,23.14
2018-05-17T07:42:38.442Z,22.88
2018-05-17T07:44:43.627Z,22.98
2018-05-17T07:46:48.892Z,22.99
2018-05-17T07:48:54.378Z,22.73
2018-05-17T07:50:59.629Z,22.80
2018-05-17T07:53:05.008Z,22.97
2018-05-17T07:55:13.586Z,22.86
2018-05-17T07:57:21.234Z,22.95
2018-05-17T07:59:27.864Z,23.01
2018-05-17T08:01:34.022Z,22.72
2018-05-17T08:03:39.245Z,22.69
2018-05-17T08:05:44.446Z,23.14
2018-05-17T08:07:50.659Z,23.00
2018-05-17T08:09:56.523Z,22.70
2018-05-17T08:12:02.659Z,22.88
2018-05-17T08:14:09.939Z,23.05
2018-05-17T08:16:17.300Z,22.76
2018-05-17T08:18:23.422Z,22.92
2018-05-17T08:20:29.863Z,22.73
2018-05-17T08:22:35.200Z,23.04
2018-05-17T08:24:41.007Z,23.26
2018-05-17T08:26:46.953Z,23.31
2018-05-17T08:28:52.274Z,23.46
2018-05-17T08:30:57.494Z,23.30
2018-05-17T08:33:03.645Z,23.17
2018-05-17T08:35:10.965Z,23.22
2018-05-17T08:37:18.066Z,23.48
2018-05-17T08:39:24.222Z,23.56
2018-05-17T08:41:30.043Z,23.41
2018-05-17T08:43:35.711Z,23.19
2018-05-17T08:45:42.094Z,23.36
2018-05-17T08:47:47.429Z,23.13
2018-05-17T08:49:52.849Z,23.32
2018-05-17T08:51:58.294Z,23.34
2018-05-17T08:54:03.500Z,23.41
2018-05-17T08:56:10.424Z,23.11
2018-05-17T08:58:19.564Z,23.43
2018-05-17T09:00:25.617Z,23.65
2018-05-17T09:02:31.550Z,23.62
2018-05-17T09:04:37.137Z,23.32
2018-05-17T09:06:43.598Z,23.61
2018-05-17T09:08:49.375Z,23.63
2018-05-17T09:10:59.669Z,23.65
2018-05-17T09:13:08.226Z,23.30
2018-05-17T09:15:17.527Z,22.93
2018-05-17T09:17:25.380Z,23.16
2018-05-17T09:19:32.553Z,23.11
2018-05-17T09:21:38.795Z,23.43
2018-05-17T09:23:45.351Z,23.68
2018-05-17T09:25:51.311Z,23.59
2018-05-17T09:27:58.741Z,23.89
2018-05-17T09:30:08.936Z,23.81
2018-05-17T09:32:17.170Z,23.91
2018-05-17T09:34:25.660Z,23.79
2018-05-17T09:36:31.975Z,23.62
2018-05-17T09:38:45.378Z,23.63
2018-05-17T09:40:53.202Z,23.92
2018-05-17T09:43:00.232Z,23.75
2018-05-17T09:48:22.590Z,23.99
2018-05-17T09:50:31.138Z,23.88
2018-05-17T09:52:37.817Z,23.52
2018-05-17T09:54:49.678Z,23.75
2018-05-17T09:56:56.583Z,23.77
2018-05-17T09:59:04.208Z,24.23
2018-05-17T10:01:20.138Z,24.42
2018-05-17T10:03:26.561Z,24.03
2018-05-17T10:05:36.916Z,23.99
2018-05-17T10:07:46.200Z,23.73
2018-05-17T10:09:57.741Z,23.88
2018-05-17T10:12:03.697Z,24.05
2018-05-17T10:15:36.129Z,24.01
2018-05-17T10:17:42.439Z,23.63
2018-05-17T10:19:50.330Z,23.83
2018-05-17T10:21:57.242Z,23.74
2018-05-17T10:24:03.602Z,23.83
2018-05-17T10:26:15.915Z,23.75
2018-05-17T10:28:24.999Z,24.09
2018-05-17T10:30:33.170Z,24.10
2018-05-17T10:32:39.525Z,24.44
2018-05-17T10:34:46.738Z,24.38
2018-05-17T10:36:52.488Z,24.48
2018-05-17T10:38:58.812Z,24.09
2018-05-17T10:41:07.269Z,23.99
2018-05-17T10:43:17.651Z,24.33
2018-05-17T10:45:25.900Z,24.50
2018-05-17T10:47:32.729Z,24.60
2018-05-17T10:49:38.910Z,24.75
2018-05-17T10:51:44.869Z,24.85
2018-05-17T10:53:50.449Z,24.63
2018-05-17T10:55:56.338Z,24.37
2018-05-17T10:58:02.271Z,24.28
2018-05-17T11:00:10.630Z,23.98
2018-05-17T11:02:20.588Z,24.39
2018-05-17T11:04:27.471Z,24.42
2018-05-17T11:06:33.272Z,24.84
2018-05-17T11:08:39.309Z,24.83
2018-05-17T11:10:45.211Z,25.04
2018-05-17T11:12:50.562Z,24.91
2018-05-17T11:14:55.858Z,24.43
2018-05-17T11:17:01.840Z,24.65
2018-05-17T11:19:08.520Z,24.74
2018-05-17T11:21:16.935Z,24.93
2018-05-17T11:23:24.742Z,24.91
2018-05-17T11:25:30.801Z,24.84
2018-05-17T11:27:36.304Z,25.06
2018-05-17T11:29:41.947Z,24.80
2018-05-17T11:31:47.865Z,24.91
2018-05-17T11:33:53.567Z,25.04
2018-05-17T11:36:01.927Z,25.19
2018-05-17T11:38:08.501Z,25.56
2018-05-17T11:40:16.670Z,25.12
2018-05-17T11:42:24.395Z,24.97
2018-05-17T11:44:30.002Z,25.27
2018-05-17T11:46:35.629Z,25.07
2018-05-17T11:48:41.301Z,25.03
2018-05-17T11:50:46.626Z,24.97
2018-05-17T11:52:52.143Z,24.73
2018-05-17T11:54:57.928Z,25.09
2018-05-17T11:57:03.324Z,25.05
2018-05-17T11:59:12.703Z,25.00
2018-05-17T12:01:19.359Z,25.12
2018-05-17T12:03:25.011Z,25.01
2018-05-17T12:05:30.533Z,25.52
2018-05-17T12:07:40.095Z,25.60
2018-05-17T12:09:45.385Z,25.61
2018-05-17T12:11:50.606Z,25.77
2018-05-17T12:13:56.178Z,25.92
2018-05-17T12:16:01.797Z,25.64
2018-05-17T12:18:08.328Z,26.80
2018-05-17T12:20:16.646Z,26.57
2018-05-17T12:22:24.986Z,26.32
2018-05-17T12:24:30.263Z,26.69
2018-05-17T12:26:35.850Z,26.80
2018-05-17T12:28:41.230Z,26.83
2018-05-17T12:30:46.565Z,26.86
2018-05-17T12:32:52.225Z,26.29
2018-05-17T12:34:57.678Z,25.77
2018-05-17T12:37:03.159Z,26.46
2018-05-17T12:39:11.755Z,26.55
2018-05-17T12:41:18.709Z,26.28
2018-05-17T12:43:25.670Z,26.46
2018-05-17T12:45:31.343Z,26.63
2018-05-17T12:47:36.642Z,26.73
2018-05-17T12:49:42.030Z,27.05
2018-05-17T12:51:47.554Z,27.49
2018-05-17T12:53:52.702Z,28.43
2018-05-17T12:55:58.085Z,28.98
2018-05-17T13:00:16.204Z,29.33
2018-05-17T13:04:34.818Z,28.95
2018-05-17T13:06:40.052Z,28.22
2018-05-17T13:08:45.286Z,29.56
2018-05-17T13:10:50.862Z,30.69
2018-05-17T13:12:56.303Z,30.74
2018-05-17T13:15:02.022Z,29.67
2018-05-17T13:17:08.344Z,30.08
2018-05-17T13:19:16.571Z,29.74
2018-05-17T13:21:22.812Z,30.04
2018-05-17T13:23:28.358Z,30.71
2018-05-17T13:25:33.583Z,30.65
2018-05-17T13:27:39.893Z,31.45
2018-05-17T13:29:45.691Z,31.60
2018-05-17T13:31:50.905Z,31.42
2018-05-17T13:33:56.145Z,30.99
2018-05-17T13:36:02.641Z,29.69
2018-05-17T13:38:09.111Z,29.75
2018-05-17T13:40:17.112Z,29.65
2018-05-17T13:42:25.227Z,29.77
2018-05-17T13:44:30.879Z,29.44
2018-05-17T13:46:36.156Z,30.20
2018-05-17T13:48:41.649Z,30.14
2018-05-17T13:50:47.354Z,30.21
2018-05-17T13:52:52.574Z,29.77
2018-05-17T13:54:57.998Z,29.45
2018-05-17T13:57:04.147Z,29.40
2018-05-17T13:59:12.059Z,28.25
2018-05-17T14:01:19.680Z,28.09
2018-05-17T14:03:25.223Z,28.12
2018-05-17T14:05:30.477Z,28.30
2018-05-17T14:07:35.998Z,28.38
2018-05-17T14:09:41.272Z,28.15
2018-05-17T14:11:46.369Z,28.32
2018-05-17T14:13:51.854Z,28.14
2018-05-17T14:15:57.170Z,27.95
2018-05-17T14:18:03.144Z,28.18
2018-05-17T14:20:12.076Z,28.30
2018-05-17T14:22:20.937Z,28.00
2018-05-17T14:24:26.714Z,27.58
2018-05-17T14:26:32.410Z,27.78
2018-05-17T14:28:37.698Z,27.65
2018-05-17T14:30:42.922Z,27.47
2018-05-17T14:32:48.828Z,27.51
2018-05-17T14:34:54.122Z,27.79
2018-05-17T14:37:00.419Z,27.61
2018-05-17T14:39:07.739Z,27.69
2018-05-17T14:41:16.088Z,27.85
2018-05-17T14:43:22.582Z,27.85
2018-05-17T14:45:28.362Z,27.76
2018-05-17T14:47:33.674Z,27.74
2018-05-17T14:49:39.401Z,27.74
2018-05-17T14:51:45.031Z,27.91
2018-05-17T14:53:50.379Z,27.75
2018-05-17T14:55:55.786Z,27.73
2018-05-17T14:58:03.705Z,27.75
2018-05-17T15:00:11.484Z,27.57
2018-05-17T15:02:18.279Z,27.36
2018-05-17T15:04:25.780Z,27.17
2018-05-17T15:06:31.351Z,27.39
2018-05-17T15:08:36.876Z,27.45
2018-05-17T15:10:42.387Z,27.42
2018-05-17T15:12:47.822Z,27.51
2018-05-17T15:14:53.090Z,27.57
2018-05-17T15:16:58.618Z,27.56
2018-05-17T15:19:03.776Z,27.77
2018-05-17T15:21:14.803Z,27.73
2018-05-17T15:23:21.585Z,27.66
2018-05-17T15:25:27.602Z,27.37
2018-05-17T15:27:32.992Z,27.71
2018-05-17T15:29:38.600Z,27.54
2018-05-17T15:31:43.921Z,27.68
2018-05-17T15:33:49.338Z,27.54
2018-05-17T15:35:55.283Z,27.58
2018-05-17T15:38:00.852Z,27.51
2018-05-17T15:40:08.915Z,27.37
2018-05-17T15:42:17.199Z,27.35
2018-05-17T15:44:24.547Z,27.44
2018-05-17T15:46:29.822Z,27.07
2018-05-17T15:48:35.654Z,26.53
2018-05-17T15:50:40.889Z,26.60
2018-05-17T15:52:46.315Z,26.75
2018-05-17T15:54:51.826Z,26.80
2018-05-17T15:56:57.112Z,26.58
2018-05-17T15:59:02.343Z,26.57
2018-05-17T16:01:09.234Z,26.80
2018-05-17T16:03:17.775Z,27.08
2018-05-17T16:05:23.669Z,26.89
2018-05-17T16:07:29.411Z,26.79
2018-05-17T16:09:34.735Z,26.85
2018-05-17T16:11:40.129Z,26.65
2018-05-17T16:13:45.741Z,26.54
2018-05-17T16:15:51.671Z,26.33
2018-05-17T16:17:56.989Z,26.48
2018-05-17T16:20:02.614Z,26.32
2018-05-17T16:22:09.619Z,26.39
2018-05-17T16:24:18.522Z,26.59
2018-05-17T16:26:25.682Z,26.43
2018-05-17T16:28:30.802Z,26.51
2018-05-17T16:30:35.957Z,26.23
2018-05-17T16:32:41.515Z,26.32
2018-05-17T16:34:47.658Z,26.40
2018-05-17T16:36:53.026Z,26.22
2018-05-17T16:38:58.595Z,26.27
2018-05-17T16:41:03.911Z,25.94
2018-05-17T16:43:11.653Z,26.04
2018-05-17T16:45:19.946Z,25.48
2018-05-17T16:47:27.609Z,25.44
2018-05-17T16:49:32.840Z,25.58
2018-05-17T16:51:38.253Z,25.47
2018-05-17T16:53:43.551Z,25.29
2018-05-17T16:55:48.794Z,25.24
2018-05-17T16:57:54.468Z,25.44
2018-05-17T17:00:00.483Z,25.32
2018-05-17T17:02:06.543Z,25.45
2018-05-17T17:04:15.927Z,25.68
2018-05-17T17:06:22.068Z,25.48
2018-05-17T17:08:27.311Z,25.56
2018-05-17T17:10:32.830Z,25.66
2018-05-17T17:12:39.217Z,25.50
2018-05-17T17:14:45.193Z,25.64
2018-05-17T17:16:51.136Z,25.88
2018-05-17T17:18:56.677Z,25.67
2018-05-17T17:21:02.057Z,25.61
2018-05-17T17:23:09.118Z,25.72
2018-05-17T17:25:16.749Z,25.85
2018-05-17T17:27:24.405Z,25.75
2018-05-17T17:29:30.047Z,25.67
2018-05-17T17:31:35.482Z,25.81
2018-05-17T17:33:41.094Z,25.60
2018-05-17T17:35:47.077Z,25.59
2018-05-17T17:37:52.667Z,25.75
2018-05-17T17:39:58.811Z,25.72
2018-05-17T17:42:04.429Z,25.62
2018-05-17T17:44:12.696Z,25.52
2018-05-17T17:46:20.594Z,25.87
2018-05-17T17:48:26.709Z,25.64
2018-05-17T17:50:32.839Z,25.78
2018-05-17T17:52:38.878Z,25.65
2018-05-17T17:54:44.685Z,25.38
2018-05-17T17:56:50.230Z,25.57
2018-05-17T17:58:56.315Z,25.58
2018-05-17T18:01:03.027Z,25.56
2018-05-17T18:03:10.913Z,25.54
2018-05-17T18:05:19.974Z,25.60
2018-05-17T18:07:26.977Z,25.57
2018-05-17T18:09:34.118Z,25.55
2018-05-17T18:11:40.113Z,25.39
2018-05-17T18:13:46.119Z,25.09
2018-05-17T18:15:51.560Z,25.00
2018-05-17T18:17:57.226Z,25.01
2018-05-17T18:20:02.998Z,24.93
2018-05-17T18:22:09.880Z,24.91
2018-05-17T18:24:18.210Z,25.07
2018-05-17T18:26:25.013Z,24.80
2018-05-17T18:28:31.650Z,24.63
2018-05-17T18:30:37.527Z,24.81
2018-05-17T18:32:43.735Z,24.84
2018-05-17T18:34:49.140Z,24.98
2018-05-17T18:36:55.609Z,24.84
2018-05-17T18:39:03.342Z,24.77
2018-05-17T18:41:12.015Z,24.82
2018-05-17T18:43:19.204Z,24.46
2018-05-17T18:45:26.021Z,24.62
2018-05-17T18:47:31.621Z,24.36
2018-05-17T18:49:37.153Z,24.48
2018-05-17T18:51:42.773Z,24.40
2018-05-17T18:53:49.006Z,24.11
2018-05-17T18:55:54.552Z,24.11
2018-05-17T18:58:00.369Z,23.93
2018-05-17T19:00:07.149Z,23.81
2018-05-17T19:02:16.206Z,23.59
2018-05-17T19:04:25.745Z,23.78
2018-05-17T19:06:31.302Z,23.96
2018-05-17T19:08:36.904Z,23.68
2018-05-17T19:10:42.629Z,23.74
2018-05-17T19:12:48.622Z,23.70
2018-05-17T19:15:56.718Z,23.76
2018-05-17T19:18:03.433Z,23.77
2018-05-17T19:20:11.285Z,23.60
2018-05-17T19:22:17.906Z,23.72
2018-05-17T19:24:24.694Z,23.68
2018-05-17T19:26:30.646Z,23.66
2018-05-17T19:28:35.990Z,23.56
2018-05-17T19:30:41.869Z,23.64
2018-05-17T19:32:47.078Z,23.49
2018-05-17T19:34:52.281Z,23.23
2018-05-17T19:36:57.987Z,23.46
2018-05-17T19:39:03.597Z,23.37
2018-05-17T19:41:11.108Z,23.30
2018-05-17T19:43:18.867Z,23.25
2018-05-17T19:45:24.409Z,23.17
2018-05-17T19:47:30.342Z,23.32
2018-05-17T19:49:35.981Z,23.12
2018-05-17T19:51:41.719Z,23.10
2018-05-17T19:53:47.463Z,23.08
2018-05-17T19:55:53.164Z,23.29
2018-05-17T19:57:58.379Z,23.22
2018-05-17T20:00:03.715Z,23.18
2018-05-17T20:02:11.979Z,23.23
2018-05-17T20:04:21.122Z,23.10
2018-05-17T20:06:26.533Z,23.13
2018-05-17T20:08:33.117Z,23.12
2018-05-17T20:10:38.562Z,23.10
2018-05-17T20:12:44.166Z,23.07
2018-05-17T20:14:49.634Z,23.23
2018-05-17T20:16:54.857Z,22.76
2018-05-17T20:19:00.055Z,22.67
2018-05-17T20:21:06.084Z,22.84
2018-05-17T20:23:14.486Z,22.61
2018-05-17T20:25:21.623Z,22.96
2018-05-17T20:27:27.376Z,22.79
2018-05-17T20:29:32.617Z,22.46
2018-05-17T20:31:37.777Z,22.69
2018-05-17T20:33:43.253Z,22.78
2018-05-17T20:35:48.489Z,22.99
2018-05-17T20:37:53.613Z,23.01
2018-05-17T20:39:59.034Z,22.96
2018-05-17T20:42:04.237Z,22.78
2018-05-17T20:44:12.211Z,22.62
2018-05-17T20:46:20.857Z,22.71
2018-05-17T20:48:26.346Z,22.53
2018-05-17T20:50:31.550Z,22.62
2018-05-17T20:52:37.121Z,22.52
2018-05-17T20:54:42.494Z,22.41
2018-05-17T20:56:47.618Z,22.67
2018-05-17T20:58:53.103Z,22.22
2018-05-17T21:00:58.289Z,22.25
2018-05-17T21:03:04.136Z,22.45
2018-05-17T21:05:12.472Z,22.60
2018-05-17T21:07:19.239Z,22.38
2018-05-17T21:09:24.971Z,22.31
2018-05-17T21:11:30.620Z,22.39
2018-05-17T21:13:35.868Z,22.42
2018-05-17T21:15:41.266Z,22.25
2018-05-17T21:17:47.641Z,22.27
2018-05-17T21:19:52.818Z,22.24
2018-05-17T21:21:57.968Z,22.19
2018-05-17T21:24:03.942Z,21.77
2018-05-17T21:26:11.864Z,22.24
2018-05-17T21:28:18.213Z,22.31
2018-05-17T21:30:24.091Z,22.28
2018-05-17T21:32:30.711Z,22.22
2018-05-17T21:34:36.374Z,22.07
2018-05-17T21:36:41.867Z,22.22
2018-05-17T21:38:47.742Z,22.35
2018-05-17T21:40:53.055Z,22.07
2018-05-17T21:42:58.726Z,22.17
2018-05-17T21:45:04.121Z,21.81
2018-05-17T21:47:12.403Z,22.03
2018-05-17T21:49:22.604Z,21.74
2018-05-17T21:51:28.077Z,22.00
2018-05-17T21:53:34.164Z,22.01
2018-05-17T21:55:39.649Z,22.08
2018-05-17T21:57:46.058Z,21.88
2018-05-17T21:59:51.825Z,21.97
2018-05-17T22:01:57.341Z,21.93
2018-05-17T22:04:04.376Z,21.99
2018-05-17T22:06:13.840Z,22.10
2018-05-17T22:08:21.616Z,22.28
2018-05-17T22:10:27.422Z,22.17
2018-05-17T22:12:32.796Z,22.05
2018-05-17T22:14:38.452Z,22.06
2018-05-17T22:16:44.438Z,21.85
2018-05-17T22:18:49.758Z,21.84
2018-05-17T22:20:55.315Z,21.78
2018-05-17T22:23:01.055Z,21.77
2018-05-17T22:25:07.055Z,21.76
2018-05-17T22:27:15.825Z,21.80
2018-05-17T22:29:23.953Z,21.66
2018-05-17T22:31:29.165Z,22.01
2018-05-17T22:33:34.573Z,21.92
2018-05-17T22:35:40.349Z,21.83
2018-05-17T22:37:46.671Z,21.96
2018-05-17T22:39:52.391Z,21.94
2018-05-17T22:41:57.553Z,22.03
2018-05-17T22:44:02.699Z,21.97
2018-05-17T22:46:10.992Z,22.23
2018-05-17T22:48:18.541Z,22.11
2018-05-17T22:50:25.437Z,22.08
2018-05-17T22:52:31.290Z,21.80
2018-05-17T22:54:36.477Z,22.04
2018-05-17T22:56:50.911Z,22.12
2018-05-17T22:58:57.724Z,22.13
2018-05-17T23:01:03.743Z,21.89
2018-05-17T23:03:11.839Z,22.07
2018-05-17T23:05:18.724Z,22.13
2018-05-17T23:07:26.312Z,21.98
2018-05-17T23:09:31.442Z,21.84
2018-05-17T23:11:37.730Z,21.64
2018-05-17T23:13:43.616Z,21.84
2018-05-17T23:15:48.810Z,22.02
2018-05-17T23:17:54.949Z,21.93
2018-05-17T23:20:00.794Z,21.69
2018-05-17T23:22:07.464Z,21.45
2018-05-17T23:24:17.296Z,21.92
2018-05-17T23:26:24.564Z,21.92
2018-05-17T23:28:30.226Z,22.02
2018-05-17T23:30:36.513Z,21.81
2018-05-17T23:32:42.306Z,22.06
2018-05-17T23:34:47.497Z,21.65
2018-05-17T23:36:53.792Z,21.78
2018-05-17T23:38:59.787Z,21.69
2018-05-17T23:41:15.913Z,21.80
2018-05-17T23:43:23.564Z,21.70
2018-05-17T23:45:29.253Z,21.93
2018-05-17T23:47:35.133Z,21.74
2018-05-17T23:49:41.346Z,21.78
2018-05-17T23:51:47.747Z,21.63
2018-05-17T23:53:52.942Z,21.78
2018-05-17T23:55:59.107Z,21.80
2018-05-17T23:58:04.921Z,21.59
